createdAt,value
2017-08-29T00:00:57.887Z,101141.63
2017-08-29T00:03:25.279Z,101138.61
2017-08-29T00:05:52.678Z,101135.30
2017-08-29T00:08:20.072Z,101133.38
2017-08-29T00:10:47.451Z,101134.27
2017-08-29T00:13:14.852Z,101129.23
2017-08-29T00:15:42.236Z,101131.16
2017-08-29T00:18:09.630Z,101128.11
2017-08-29T00:20:37.026Z,101127.48
2017-08-29T00:23:04.411Z,101127.98
2017-08-29T00:25:31.807Z,101126.02
2017-08-29T00:27:59.198Z,101123.05
2017-08-29T00:30:26.591Z,101123.05
2017-08-29T00:32:53.986Z,101133.23
2017-08-29T00:35:21.379Z,101133.06
2017-08-29T00:37:48.767Z,101132.98
2017-08-29T00:40:16.163Z,101133.02
2017-08-29T00:42:43.550Z,101123.17
2017-08-29T00:45:11.171Z,101126.83
2017-08-29T00:47:38.586Z,101123.31
2017-08-29T00:50:06.290Z,101122.22
2017-08-29T00:52:33.683Z,101116.64
2017-08-29T00:55:01.083Z,101114.64
2017-08-29T00:57:28.466Z,101112.94
2017-08-29T00:59:55.864Z,101105.97
2017-08-29T01:02:23.251Z,101117.63
2017-08-29T01:04:50.648Z,101114.73
2017-08-29T01:07:18.038Z,101112.89
2017-08-29T01:09:45.438Z,101110.75
2017-08-29T01:12:12.826Z,101115.78
2017-08-29T01:14:40.222Z,101110.84
2017-08-29T01:17:07.615Z,101110.34
2017-08-29T01:19:35.006Z,101101.75
2017-08-29T01:22:02.392Z,101103.51
2017-08-29T01:24:30.067Z,101097.94
2017-08-29T01:26:57.455Z,101099.57
2017-08-29T01:29:24.856Z,101099.86
2017-08-29T01:31:52.240Z,101091.16
2017-08-29T01:34:19.626Z,101092.95
2017-08-29T01:36:47.016Z,101087.02
2017-08-29T01:39:14.410Z,101088.27
2017-08-29T01:41:42.055Z,101088.14
2017-08-29T01:44:09.715Z,101086.02
2017-08-29T01:46:37.104Z,101081.10
2017-08-29T01:49:04.486Z,101088.77
2017-08-29T01:51:31.883Z,101085.45
2017-08-29T01:53:59.268Z,101087.59
2017-08-29T01:56:26.666Z,101087.30
2017-08-29T01:58:54.054Z,101084.82
2017-08-29T02:01:21.454Z,101077.70
2017-08-29T02:03:48.843Z,101080.30
2017-08-29T02:06:16.245Z,101076.49
2017-08-29T02:08:43.635Z,101075.91
2017-08-29T02:11:11.031Z,101074.96
2017-08-29T02:13:38.427Z,101077.91
2017-08-29T02:16:05.819Z,101072.51
2017-08-29T02:18:33.206Z,101070.95
2017-08-29T02:21:00.604Z,101064.26
2017-08-29T02:23:27.991Z,101058.26
2017-08-29T02:25:55.390Z,101056.02
2017-08-29T02:28:22.778Z,101059.34
2017-08-29T02:30:50.175Z,101061.59
2017-08-29T02:33:17.572Z,101059.74
2017-08-29T02:35:44.963Z,101053.98
2017-08-29T02:38:12.360Z,101053.34
2017-08-29T02:40:39.746Z,101055.31
2017-08-29T02:43:07.150Z,101051.05
2017-08-29T02:45:34.527Z,101051.17
2017-08-29T02:48:01.927Z,101047.30
2017-08-29T02:50:29.319Z,101042.12
2017-08-29T02:52:56.719Z,101037.34
2017-08-29T02:55:24.103Z,101032.71
2017-08-29T02:57:51.774Z,101036.41
2017-08-29T03:00:19.166Z,101033.61
2017-08-29T03:02:46.550Z,101029.41
2017-08-29T03:05:13.935Z,101023.37
2017-08-29T03:07:41.334Z,101023.72
2017-08-29T03:10:08.717Z,101020.59
2017-08-29T03:12:36.411Z,101017.46
2017-08-29T03:15:03.799Z,101020.78
2017-08-29T03:17:31.204Z,101016.89
2017-08-29T03:19:58.584Z,101014.41
2017-08-29T03:22:25.974Z,101011.44
2017-08-29T03:24:53.362Z,101014.52
2017-08-29T03:27:20.766Z,101018.29
2017-08-29T03:29:48.151Z,101010.36
2017-08-29T03:32:15.547Z,101013.28
2017-08-29T03:34:42.927Z,101013.19
2017-08-29T03:37:10.874Z,101010.45
2017-08-29T03:39:38.267Z,101008.50
2017-08-29T03:42:05.889Z,101005.25
2017-08-29T03:44:33.283Z,100996.29
2017-08-29T03:47:00.671Z,101002.67
2017-08-29T03:49:28.068Z,100996.41
2017-08-29T03:51:55.447Z,100994.83
2017-08-29T03:54:22.901Z,100993.94
2017-08-29T03:56:50.275Z,100994.80
2017-08-29T03:59:17.671Z,100999.38
2017-08-29T04:01:45.063Z,100993.16
2017-08-29T04:04:12.455Z,100997.56
2017-08-29T04:06:39.843Z,100997.14
2017-08-29T04:09:07.245Z,101000.58
2017-08-29T04:11:34.634Z,100997.47
2017-08-29T04:14:02.024Z,100989.37
2017-08-29T04:16:29.428Z,100988.61
2017-08-29T04:18:56.831Z,100989.87
2017-08-29T04:21:24.234Z,100982.69
2017-08-29T04:23:51.622Z,100975.10
2017-08-29T04:26:19.014Z,100979.11
2017-08-29T04:28:46.409Z,100978.63
2017-08-29T04:31:13.807Z,100979.37
2017-08-29T04:33:41.411Z,100980.14
2017-08-29T04:36:08.910Z,100975.09
2017-08-29T04:38:36.328Z,100979.97
2017-08-29T04:41:03.730Z,100974.52
2017-08-29T04:43:31.122Z,100973.44
2017-08-29T04:45:58.531Z,100967.02
2017-08-29T04:48:25.973Z,100968.38
2017-08-29T04:50:53.358Z,100965.84
2017-08-29T04:53:20.762Z,100962.78
2017-08-29T04:55:48.155Z,100958.86
2017-08-29T04:58:15.551Z,100958.55
2017-08-29T05:00:42.941Z,100963.17
2017-08-29T05:03:10.332Z,100956.44
2017-08-29T05:05:37.727Z,100964.79
2017-08-29T05:08:05.119Z,100958.71
2017-08-29T05:10:32.506Z,100960.89
2017-08-29T05:12:59.899Z,100964.30
2017-08-29T05:15:27.290Z,100960.19
2017-08-29T05:17:54.699Z,100957.47
2017-08-29T05:20:22.107Z,100954.48
2017-08-29T05:22:49.504Z,100955.37
2017-08-29T05:25:16.896Z,100955.49
2017-08-29T05:27:44.282Z,100953.81
2017-08-29T05:30:11.674Z,100955.84
2017-08-29T05:32:39.069Z,100957.00
2017-08-29T05:35:06.451Z,100959.00
2017-08-29T05:37:33.847Z,100955.67
2017-08-29T05:40:01.239Z,100952.75
2017-08-29T05:42:28.630Z,100960.34
2017-08-29T05:44:56.011Z,100953.73
2017-08-29T05:47:23.714Z,100948.91
2017-08-29T05:49:51.101Z,100955.01
2017-08-29T05:52:18.727Z,100950.22
2017-08-29T05:54:46.391Z,100945.73
2017-08-29T05:57:14.051Z,100947.62
2017-08-29T05:59:41.457Z,100940.19
2017-08-29T06:02:08.841Z,100942.78
2017-08-29T06:04:36.251Z,100936.97
2017-08-29T06:07:03.650Z,100937.66
2017-08-29T06:09:31.046Z,100937.94
2017-08-29T06:11:58.426Z,100933.86
2017-08-29T06:14:25.826Z,100938.52
2017-08-29T06:16:53.215Z,100932.99
2017-08-29T06:19:20.618Z,100925.64
2017-08-29T06:21:47.999Z,100927.03
2017-08-29T06:24:15.395Z,100924.03
2017-08-29T06:26:42.780Z,100914.95
2017-08-29T06:29:10.183Z,100916.91
2017-08-29T06:31:37.576Z,100913.06
2017-08-29T06:34:04.970Z,100916.98
2017-08-29T06:36:32.365Z,100914.63
2017-08-29T06:38:59.759Z,100913.70
2017-08-29T06:41:27.138Z,100911.83
2017-08-29T06:43:54.555Z,100907.07
2017-08-29T06:46:21.938Z,100907.20
2017-08-29T06:48:49.317Z,100904.55
2017-08-29T06:51:16.972Z,100907.36
2017-08-29T06:53:44.362Z,100913.22
2017-08-29T06:56:11.754Z,100908.78
2017-08-29T06:58:39.138Z,100907.86
2017-08-29T07:01:06.799Z,100906.52
2017-08-29T07:03:34.187Z,100906.31
2017-08-29T07:06:01.587Z,100905.53
2017-08-29T07:08:28.979Z,100900.00
2017-08-29T07:10:56.380Z,100901.45
2017-08-29T07:13:23.767Z,100904.94
2017-08-29T07:15:51.172Z,100910.22
2017-08-29T07:18:18.567Z,100919.16
2017-08-29T07:20:45.954Z,100910.48
2017-08-29T07:23:13.346Z,100917.42
2017-08-29T07:25:40.744Z,100916.95
2017-08-29T07:28:08.275Z,100909.98
2017-08-29T07:30:35.671Z,100911.02
2017-08-29T07:33:03.054Z,100911.39
2017-08-29T07:35:30.447Z,100914.69
2017-08-29T07:37:57.843Z,100913.28
2017-08-29T07:40:25.228Z,100909.37
2017-08-29T07:42:52.622Z,100909.19
2017-08-29T07:45:20.234Z,100910.45
2017-08-29T07:47:47.629Z,100918.93
2017-08-29T07:50:15.019Z,100910.73
2017-08-29T07:52:42.417Z,100911.72
2017-08-29T07:55:09.806Z,100912.91
2017-08-29T07:57:37.200Z,100915.61
2017-08-29T08:00:04.595Z,100911.50
2017-08-29T08:02:31.991Z,100909.40
2017-08-29T08:04:59.375Z,100906.36
2017-08-29T08:07:26.767Z,100907.31
2017-08-29T08:09:54.165Z,100906.33
2017-08-29T08:12:21.559Z,100905.81
2017-08-29T08:14:49.162Z,100907.16
2017-08-29T08:17:16.552Z,100907.75
2017-08-29T08:19:43.952Z,100900.46
2017-08-29T08:22:11.335Z,100903.28
2017-08-29T08:24:38.726Z,100899.41
2017-08-29T08:27:06.114Z,100901.73
2017-08-29T08:29:33.518Z,100898.64
2017-08-29T08:32:00.910Z,100897.05
2017-08-29T08:34:28.307Z,100901.59
2017-08-29T08:36:55.686Z,100900.09
2017-08-29T08:39:23.083Z,100896.20
2017-08-29T08:41:50.479Z,100895.20
2017-08-29T08:44:17.890Z,100893.92
2017-08-29T08:46:45.291Z,100894.27
2017-08-29T08:49:12.691Z,100898.47
2017-08-29T08:51:40.083Z,100892.80
2017-08-29T08:54:07.489Z,100897.23
2017-08-29T08:56:35.083Z,100899.79
2017-08-29T08:59:02.479Z,100894.45
2017-08-29T09:01:29.871Z,100893.25
2017-08-29T09:03:57.281Z,100892.14
2017-08-29T09:06:24.659Z,100894.44
2017-08-29T09:08:52.072Z,100891.93
2017-08-29T09:11:19.452Z,100891.30
2017-08-29T09:13:47.063Z,100886.23
2017-08-29T09:16:14.454Z,100890.15
2017-08-29T09:18:41.848Z,100881.94
2017-08-29T09:21:09.238Z,100882.67
2017-08-29T09:23:36.639Z,100881.80
2017-08-29T09:26:04.032Z,100892.73
2017-08-29T09:28:31.431Z,100884.83
2017-08-29T09:30:58.823Z,100884.64
2017-08-29T09:33:26.218Z,100891.36
2017-08-29T09:35:53.619Z,100889.33
2017-08-29T09:38:21.012Z,100880.84
2017-08-29T09:40:48.415Z,100878.14
2017-08-29T09:43:15.823Z,100872.87
2017-08-29T09:45:43.211Z,100872.28
2017-08-29T09:48:10.608Z,100875.19
2017-08-29T09:50:38.009Z,100870.25
2017-08-29T09:53:05.411Z,100867.77
2017-08-29T09:55:32.807Z,100862.16
2017-08-29T09:58:00.202Z,100857.07
2017-08-29T10:00:27.611Z,100857.75
2017-08-29T10:02:55.011Z,100855.33
2017-08-29T10:05:22.419Z,100853.50
2017-08-29T10:07:49.818Z,100848.36
2017-08-29T10:10:17.220Z,100846.67
2017-08-29T10:12:44.644Z,100851.58
2017-08-29T10:15:12.062Z,100841.75
2017-08-29T10:17:39.459Z,100843.30
2017-08-29T10:20:06.879Z,100842.49
2017-08-29T10:22:34.284Z,100838.39
2017-08-29T10:25:01.690Z,100832.58
2017-08-29T10:27:29.095Z,100831.62
2017-08-29T10:29:56.503Z,100826.09
2017-08-29T10:32:23.895Z,100824.55
2017-08-29T10:34:51.310Z,100820.05
2017-08-29T10:37:18.712Z,100822.09
2017-08-29T10:39:46.120Z,100820.47
2017-08-29T10:42:13.731Z,100817.83
2017-08-29T10:44:41.131Z,100819.83
2017-08-29T10:47:08.532Z,100812.35
2017-08-29T10:49:35.954Z,100819.47
2017-08-29T10:52:03.360Z,100806.30
2017-08-29T10:54:30.771Z,100800.06
2017-08-29T10:56:58.168Z,100803.95
2017-08-29T10:59:25.584Z,100805.02
2017-08-29T11:01:52.987Z,100795.48
2017-08-29T11:04:20.387Z,100793.51
2017-08-29T11:06:47.799Z,100792.81
2017-08-29T11:09:15.195Z,100789.04
2017-08-29T11:11:42.587Z,100783.17
2017-08-29T11:14:09.979Z,100782.08
2017-08-29T11:16:37.398Z,100781.74
2017-08-29T11:19:04.791Z,100785.94
2017-08-29T11:21:32.199Z,100782.67
2017-08-29T11:23:59.611Z,100776.88
2017-08-29T11:26:27.023Z,100781.91
2017-08-29T11:28:54.437Z,100768.23
2017-08-29T11:31:21.840Z,100770.06
2017-08-29T11:33:49.461Z,100771.56
2017-08-29T11:36:16.883Z,100769.14
2017-08-29T11:38:44.294Z,100768.00
2017-08-29T11:41:11.682Z,100767.44
2017-08-29T11:43:39.199Z,100762.05
2017-08-29T11:46:06.764Z,100753.70
2017-08-29T11:48:34.162Z,100756.46
2017-08-29T11:51:01.567Z,100753.47
2017-08-29T11:53:28.974Z,100756.70
2017-08-29T11:55:56.375Z,100756.88
2017-08-29T11:58:23.774Z,100755.36
2017-08-29T12:00:53.724Z,100752.08
2017-08-29T12:03:21.172Z,100755.64
2017-08-29T12:05:48.576Z,100744.09
2017-08-29T12:08:15.994Z,100743.41
2017-08-29T12:10:43.603Z,100741.95
2017-08-29T12:13:11.003Z,100739.26
2017-08-29T12:15:38.386Z,100739.58
2017-08-29T12:18:05.791Z,100728.09
2017-08-29T12:20:33.195Z,100724.77
2017-08-29T12:23:00.587Z,100721.66
2017-08-29T12:25:27.979Z,100721.46
2017-08-29T12:27:55.381Z,100718.92
2017-08-29T12:30:22.767Z,100722.25
2017-08-29T12:32:50.168Z,100710.92
2017-08-29T12:35:17.568Z,100708.10
2017-08-29T12:37:44.977Z,100708.06
2017-08-29T12:40:12.365Z,100708.16
2017-08-29T12:42:39.768Z,100708.86
2017-08-29T12:45:07.178Z,100703.45
2017-08-29T12:47:34.567Z,100712.91
2017-08-29T12:50:01.988Z,100701.96
2017-08-29T12:52:29.379Z,100694.80
2017-08-29T12:54:56.783Z,100693.31
2017-08-29T12:57:24.182Z,100697.48
2017-08-29T12:59:51.575Z,100694.98
2017-08-29T13:02:18.977Z,100690.44
2017-08-29T13:04:46.376Z,100692.16
2017-08-29T13:07:13.792Z,100690.44
2017-08-29T13:09:41.411Z,100690.59
2017-08-29T13:12:08.817Z,100688.08
2017-08-29T13:14:36.790Z,100693.61
2017-08-29T13:17:04.187Z,100699.35
2017-08-29T13:19:31.595Z,100683.23
2017-08-29T13:21:58.984Z,100678.91
2017-08-29T13:24:26.377Z,100674.43
2017-08-29T13:26:53.783Z,100681.11
2017-08-29T13:29:21.200Z,100679.28
2017-08-29T13:31:48.617Z,100676.25
2017-08-29T13:34:16.016Z,100672.59
2017-08-29T13:36:43.615Z,100671.60
2017-08-29T13:39:11.024Z,100674.13
2017-08-29T13:41:38.416Z,100677.27
2017-08-29T13:44:05.810Z,100665.41
2017-08-29T13:46:33.743Z,100664.66
2017-08-29T13:49:01.139Z,100669.09
2017-08-29T13:51:28.543Z,100665.83
2017-08-29T13:53:55.935Z,100665.55
2017-08-29T13:56:23.340Z,100653.27
2017-08-29T13:58:50.732Z,100650.94
2017-08-29T14:01:18.132Z,100646.66
2017-08-29T14:03:45.732Z,100653.91
2017-08-29T14:06:13.149Z,100647.11
2017-08-29T14:08:40.759Z,100645.48
2017-08-29T14:11:08.147Z,100640.72
2017-08-29T14:13:35.531Z,100634.96
2017-08-29T14:16:02.931Z,100633.08
2017-08-29T14:18:30.334Z,100633.73
2017-08-29T14:20:57.722Z,100638.56
2017-08-29T14:23:25.124Z,100636.00
2017-08-29T14:25:52.523Z,100634.29
2017-08-29T14:28:19.911Z,100634.02
2017-08-29T14:30:47.368Z,100632.81
2017-08-29T14:33:14.788Z,100634.34
2017-08-29T14:35:42.163Z,100629.94
2017-08-29T14:38:09.560Z,100621.55
2017-08-29T14:40:36.962Z,100618.83
2017-08-29T14:43:04.351Z,100621.93
2017-08-29T14:45:31.757Z,100624.11
2017-08-29T14:48:11.689Z,100622.98
2017-08-29T14:50:39.079Z,100624.59
2017-08-29T14:53:06.491Z,100621.39
2017-08-29T14:55:33.882Z,100628.14
2017-08-29T14:58:01.271Z,100631.45
2017-08-29T15:00:28.677Z,100625.09
2017-08-29T15:02:56.055Z,100619.61
2017-08-29T15:05:23.459Z,100625.63
2017-08-29T15:07:50.848Z,100626.92
2017-08-29T15:10:18.247Z,100622.22
2017-08-29T15:12:45.847Z,100617.50
2017-08-29T15:15:13.294Z,100617.16
2017-08-29T15:17:40.667Z,100608.09
2017-08-29T15:20:08.068Z,100610.41
2017-08-29T15:22:35.457Z,100609.36
2017-08-29T15:25:03.068Z,100600.02
2017-08-29T15:27:30.459Z,100602.00
2017-08-29T15:29:57.849Z,100597.59
2017-08-29T15:32:25.239Z,100601.30
2017-08-29T15:34:52.649Z,100605.87
2017-08-29T15:37:20.033Z,100598.25
2017-08-29T15:39:47.419Z,100597.80
2017-08-29T15:42:14.833Z,100600.94
2017-08-29T15:44:42.210Z,100601.28
2017-08-29T15:47:09.891Z,100605.59
2017-08-29T15:49:37.290Z,100599.98
2017-08-29T15:52:04.688Z,100597.33
2017-08-29T15:54:32.076Z,100596.58
2017-08-29T15:56:59.540Z,100601.31
2017-08-29T15:59:26.950Z,100588.89
2017-08-29T16:01:54.379Z,100588.55
2017-08-29T16:04:21.775Z,100584.53
2017-08-29T16:06:49.175Z,100585.53
2017-08-29T16:09:16.562Z,100574.05
2017-08-29T16:11:43.971Z,100573.67
2017-08-29T16:14:11.363Z,100576.51
2017-08-29T16:16:38.746Z,100574.02
2017-08-29T16:19:06.164Z,100578.56
2017-08-29T16:21:33.538Z,100577.34
2017-08-29T16:24:00.939Z,100575.72
2017-08-29T16:26:28.319Z,100586.02
2017-08-29T16:28:55.716Z,100584.95
2017-08-29T16:31:23.111Z,100580.69
2017-08-29T16:33:50.511Z,100579.34
2017-08-29T16:36:17.914Z,100579.61
2017-08-29T16:38:45.287Z,100570.38
2017-08-29T16:41:12.671Z,100578.23
2017-08-29T16:43:40.071Z,100570.47
2017-08-29T16:46:07.454Z,100571.16
2017-08-29T16:48:34.871Z,100578.09
2017-08-29T16:51:02.260Z,100577.05
2017-08-29T16:53:29.646Z,100569.84
2017-08-29T16:55:57.069Z,100573.73
2017-08-29T16:58:24.462Z,100566.00
2017-08-29T17:00:51.850Z,100559.69
2017-08-29T17:03:19.243Z,100562.69
2017-08-29T17:05:46.639Z,100563.09
2017-08-29T17:08:14.031Z,100556.45
2017-08-29T17:10:41.418Z,100556.33
2017-08-29T17:15:48.891Z,100553.21
2017-08-29T17:18:16.294Z,100556.06
2017-08-29T17:20:43.684Z,100558.16
2017-08-29T17:23:11.313Z,100557.82
2017-08-29T17:25:39.595Z,100557.45
2017-08-29T17:28:06.997Z,100555.26
2017-08-29T17:30:34.386Z,100554.38
2017-08-29T17:33:01.788Z,100554.29
2017-08-29T17:35:29.187Z,100556.75
2017-08-29T17:37:56.566Z,100565.87
2017-08-29T17:40:24.023Z,100566.20
2017-08-29T17:42:51.411Z,100567.12
2017-08-29T17:45:18.811Z,100567.78
2017-08-29T17:47:46.203Z,100574.73
2017-08-29T17:50:13.594Z,100577.78
2017-08-29T17:52:43.331Z,100577.06
2017-08-29T17:55:10.838Z,100582.41
2017-08-29T17:57:38.229Z,100580.14
2017-08-29T18:00:05.628Z,100584.83
2017-08-29T18:02:33.027Z,100588.30
2017-08-29T18:05:00.411Z,100587.13
2017-08-29T18:07:27.819Z,100589.28
2017-08-29T18:09:55.219Z,100585.02
2017-08-29T18:12:22.611Z,100592.87
2017-08-29T18:14:50.004Z,100585.00
2017-08-29T18:17:17.406Z,100584.45
2017-08-29T18:19:44.803Z,100585.20
2017-08-29T18:22:12.214Z,100583.95
2017-08-29T18:24:39.621Z,100581.49
2017-08-29T18:27:07.038Z,100586.73
2017-08-29T18:29:34.434Z,100586.91
2017-08-29T18:32:01.852Z,100591.85
2017-08-29T18:34:29.255Z,100584.19
2017-08-29T18:36:56.647Z,100585.34
2017-08-29T18:39:24.035Z,100581.58
2017-08-29T18:41:51.506Z,100580.80
2017-08-29T18:44:18.911Z,100579.94
2017-08-29T18:46:46.315Z,100577.48
2017-08-29T18:49:13.722Z,100581.61
2017-08-29T18:51:41.340Z,100578.06
2017-08-29T18:54:08.892Z,100573.36
2017-08-29T18:56:36.315Z,100563.73
2017-08-29T18:59:03.698Z,100563.94
2017-08-29T19:01:31.111Z,100558.44
2017-08-29T19:03:58.508Z,100562.08
2017-08-29T19:06:25.911Z,100566.48
2017-08-29T19:08:53.311Z,100567.70
2017-08-29T19:11:20.721Z,100565.72
2017-08-29T19:13:48.168Z,100565.53
2017-08-29T19:16:15.582Z,100557.70
2017-08-29T19:18:43.053Z,100563.91
2017-08-29T19:21:10.507Z,100568.98
2017-08-29T19:23:37.898Z,100562.00
2017-08-29T19:26:05.312Z,100558.29
2017-08-29T19:28:32.711Z,100559.14
2017-08-29T19:31:00.172Z,100560.31
2017-08-29T19:33:27.574Z,100555.10
2017-08-29T19:35:55.199Z,100560.58
2017-08-29T19:38:22.599Z,100555.88
2017-08-29T19:40:49.994Z,100561.94
2017-08-29T19:43:17.434Z,100554.31
2017-08-29T19:45:44.835Z,100555.46
2017-08-29T19:48:12.227Z,100558.48
2017-08-29T19:50:39.627Z,100560.17
2017-08-29T19:53:07.247Z,100551.51
2017-08-29T19:55:34.644Z,100551.64
2017-08-29T19:58:02.047Z,100551.44
2017-08-29T20:00:29.447Z,100550.50
2017-08-29T20:02:56.842Z,100548.31
2017-08-29T20:05:24.249Z,100552.68
2017-08-29T20:07:51.647Z,100551.64
2017-08-29T20:10:19.043Z,100546.44
2017-08-29T20:12:46.447Z,100548.92
2017-08-29T20:15:13.848Z,100544.14
2017-08-29T20:17:41.266Z,100547.90
2017-08-29T20:20:08.871Z,100541.01
2017-08-29T20:22:36.271Z,100540.57
2017-08-29T20:25:03.668Z,100536.39
2017-08-29T20:27:31.076Z,100532.75
2017-08-29T20:29:58.483Z,100532.92
2017-08-29T20:32:25.874Z,100532.08
2017-08-29T20:34:53.280Z,100533.88
2017-08-29T20:37:20.678Z,100535.22
2017-08-29T20:39:48.112Z,100533.81
2017-08-29T20:42:15.487Z,100537.69
2017-08-29T20:44:42.891Z,100534.02
2017-08-29T20:47:10.775Z,100533.48
2017-08-29T20:49:38.193Z,100539.21
2017-08-29T20:52:05.623Z,100543.69
2017-08-29T20:54:33.030Z,100536.36
2017-08-29T20:57:00.443Z,100539.19
2017-08-29T20:59:27.842Z,100539.15
2017-08-29T21:01:55.250Z,100539.60
2017-08-29T21:04:22.655Z,100530.30
2017-08-29T21:06:50.071Z,100532.60
2017-08-29T21:09:17.487Z,100530.53
2017-08-29T21:11:45.106Z,100535.54
2017-08-29T21:14:12.524Z,100536.55
2017-08-29T21:16:39.918Z,100533.61
2017-08-29T21:19:07.321Z,100533.91
2017-08-29T21:21:34.718Z,100535.82
2017-08-29T21:24:02.119Z,100525.96
2017-08-29T21:26:29.528Z,100530.80
2017-08-29T21:28:56.932Z,100533.63
2017-08-29T21:31:24.339Z,100529.03
2017-08-29T21:33:51.744Z,100531.94
2017-08-29T21:36:19.154Z,100534.01
2017-08-29T21:38:46.552Z,100526.05
2017-08-29T21:41:13.955Z,100526.39
2017-08-29T21:43:41.564Z,100524.42
2017-08-29T21:46:08.970Z,100523.62
2017-08-29T21:48:36.385Z,100517.00
2017-08-29T21:51:04.002Z,100517.09
2017-08-29T21:53:31.399Z,100520.20
2017-08-29T21:55:58.807Z,100517.44
2017-08-29T21:58:26.202Z,100521.58
2017-08-29T22:00:53.639Z,100516.78
2017-08-29T22:03:21.030Z,100521.90
2017-08-29T22:05:48.453Z,100516.06
2017-08-29T22:08:15.851Z,100521.31
2017-08-29T22:10:43.263Z,100526.95
2017-08-29T22:13:10.651Z,100523.51
2017-08-29T22:15:38.051Z,100520.95
2017-08-29T22:18:05.456Z,100521.38
2017-08-29T22:20:32.874Z,100511.51
2017-08-29T22:23:00.267Z,100515.28
2017-08-29T22:25:27.654Z,100513.95
2017-08-29T22:27:55.068Z,100509.22
2017-08-29T22:30:22.468Z,100508.55
2017-08-29T22:32:49.881Z,100507.04
2017-08-29T22:35:17.270Z,100510.80
2017-08-29T22:37:44.662Z,100507.51
2017-08-29T22:40:12.058Z,100511.67
2017-08-29T22:42:39.460Z,100506.31
2017-08-29T22:45:06.850Z,100501.55
2017-08-29T22:47:34.260Z,100496.05
2017-08-29T22:50:01.659Z,100498.59
2017-08-29T22:52:29.059Z,100501.95
2017-08-29T22:54:56.448Z,100501.73
2017-08-29T22:57:23.864Z,100504.61
2017-08-29T22:59:51.258Z,100502.27
2017-08-29T23:02:18.663Z,100498.51
2017-08-29T23:04:46.063Z,100495.89
2017-08-29T23:07:13.464Z,100496.38
2017-08-29T23:09:40.867Z,100491.75
2017-08-29T23:12:08.264Z,100483.67
2017-08-29T23:14:35.672Z,100492.45
2017-08-29T23:17:03.067Z,100490.17
2017-08-29T23:19:30.457Z,100491.92
2017-08-29T23:21:57.846Z,100487.72
2017-08-29T23:24:25.256Z,100490.02
2017-08-29T23:26:52.651Z,100489.46
2017-08-29T23:29:20.059Z,100480.40
2017-08-29T23:31:47.489Z,100476.77
2017-08-29T23:34:14.882Z,100477.81
2017-08-29T23:36:42.274Z,100466.73
2017-08-29T23:39:09.886Z,100464.13
2017-08-29T23:41:37.279Z,100455.27
2017-08-29T23:44:04.695Z,100451.58
2017-08-29T23:46:32.115Z,100446.13
2017-08-29T23:48:59.711Z,100440.69
2017-08-29T23:51:27.335Z,100434.91
2017-08-29T23:53:54.727Z,100430.06
2017-08-29T23:56:22.131Z,100428.61
2017-08-29T23:58:49.531Z,100428.61
